sensor_id;sensor_type;location;lat;lon;timestamp;pressure;altitude;pressure_sealevel;temperature;humidity
63339;BME280;47485;51.378;-1.342;2023-05-27T00:01:00;101555.18;;;12.24;21.89
63339;BME280;47485;51.378;-1.342;2023-05-27T00:03:26;101558.43;;;12.89;21.54
63339;BME280;47485;51.378;-1.342;2023-05-27T00:05:53;101557.44;;;12.99;21.40
63339;BME280;47485;51.378;-1.342;2023-05-27T00:08:20;101560.17;;;12.43;22.10
63339;BME280;47485;51.378;-1.342;2023-05-27T00:10:47;101562.70;;;11.88;22.17
63339;BME280;47485;51.378;-1.342;2023-05-27T00:13:14;101559.75;;;12.66;21.59
63339;BME280;47485;51.378;-1.342;2023-05-27T00:15:42;101557.09;;;11.55;21.87
63339;BME280;47485;51.378;-1.342;2023-05-27T00:18:09;101554.73;;;13.02;21.36
63339;BME280;47485;51.378;-1.342;2023-05-27T00:20:36;101554.92;;;12.06;21.87
63339;BME280;47485;51.378;-1.342;2023-05-27T00:23:02;101552.26;;;12.38;22.02
63339;BME280;47485;51.378;-1.342;2023-05-27T00:25:29;101554.57;;;13.70;21.50
63339;BME280;47485;51.378;-1.342;2023-05-27T00:27:56;101556.95;;;13.94;21.32
63339;BME280;47485;51.378;-1.342;2023-05-27T00:30:23;101553.82;;;13.17;22.12
63339;BME280;47485;51.378;-1.342;2023-05-27T00:32:50;101554.35;;;12.15;22.43
63339;BME280;47485;51.378;-1.342;2023-05-27T00:35:17;101552.92;;;12.85;21.93
63339;BME280;47485;51.378;-1.342;2023-05-27T00:37:44;101553.01;;;12.88;21.69
63339;BME280;47485;51.378;-1.342;2023-05-27T00:40:11;101551.10;;;11.62;22.60
63339;BME280;47485;51.378;-1.342;2023-05-27T00:42:42;101548.16;;;11.50;22.76
63339;BME280;47485;51.378;-1.342;2023-05-27T00:45:09;101545.46;;;13.32;22.27
63339;BME280;47485;51.378;-1.342;2023-05-27T00:47:37;101541.02;;;11.35;22.94
63339;BME280;47485;51.378;-1.342;2023-05-27T00:50:05;101538.93;;;13.67;22.42
63339;BME280;47485;51.378;-1.342;2023-05-27T00:52:32;101536.61;;;11.50;22.85
63339;BME280;47485;51.378;-1.342;2023-05-27T00:54:59;101540.35;;;10.32;22.95
63339;BME280;47485;51.378;-1.342;2023-05-27T00:57:26;101534.57;;;12.06;22.39
63339;BME280;47485;51.378;-1.342;2023-05-27T00:59:53;101535.40;;;10.36;23.47
63339;BME280;47485;51.378;-1.342;2023-05-27T01:02:20;101529.51;;;11.67;22.63
63339;BME280;47485;51.378;-1.342;2023-05-27T01:04:46;101527.11;;;10.86;23.31
63339;BME280;47485;51.378;-1.342;2023-05-27T01:07:19;101525.10;;;12.85;21.74
63339;BME280;47485;51.378;-1.342;2023-05-27T01:09:55;101527.97;;;12.05;22.65
63339;BME280;47485;51.378;-1.342;2023-05-27T01:12:40;101527.01;;;11.00;23.57
63339;BME280;47485;51.378;-1.342;2023-05-27T01:15:09;101523.48;;;11.79;22.78
63339;BME280;47485;51.378;-1.342;2023-05-27T01:17:37;101520.82;;;11.27;22.80
63339;BME280;47485;51.378;-1.342;2023-05-27T01:20:06;101513.54;;;11.60;22.79
63339;BME280;47485;51.378;-1.342;2023-05-27T01:22:33;101512.29;;;10.75;23.46
63339;BME280;47485;51.378;-1.342;2023-05-27T01:25:00;101513.74;;;9.49;25.17
63339;BME280;47485;51.378;-1.342;2023-05-27T01:27:27;101501.02;;;11.87;23.31
63339;BME280;47485;51.378;-1.342;2023-05-27T01:29:54;101504.69;;;12.45;22.66
63339;BME280;47485;51.378;-1.342;2023-05-27T01:32:27;101505.63;;;11.31;23.33
63339;BME280;47485;51.378;-1.342;2023-05-27T01:34:59;101504.10;;;11.87;22.94
63339;BME280;47485;51.378;-1.342;2023-05-27T01:37:30;101500.39;;;13.21;22.44
63339;BME280;47485;51.378;-1.342;2023-05-27T01:39:58;101496.36;;;10.93;23.29
63339;BME280;47485;51.378;-1.342;2023-05-27T01:42:25;101497.15;;;11.44;23.25
63339;BME280;47485;51.378;-1.342;2023-05-27T01:44:52;101497.63;;;10.97;23.47
63339;BME280;47485;51.378;-1.342;2023-05-27T01:47:20;101497.14;;;11.48;23.50
63339;BME280;47485;51.378;-1.342;2023-05-27T01:49:47;101496.52;;;10.89;23.18
63339;BME280;47485;51.378;-1.342;2023-05-27T01:52:13;101491.19;;;11.88;23.02
63339;BME280;47485;51.378;-1.342;2023-05-27T01:54:41;101485.82;;;11.28;23.30
63339;BME280;47485;51.378;-1.342;2023-05-27T01:57:08;101484.96;;;11.19;23.75
63339;BME280;47485;51.378;-1.342;2023-05-27T01:59:35;101480.10;;;10.95;23.97
63339;BME280;47485;51.378;-1.342;2023-05-27T02:02:02;101479.61;;;9.14;23.66
63339;BME280;47485;51.378;-1.342;2023-05-27T02:04:28;101476.38;;;10.05;23.84
63339;BME280;47485;51.378;-1.342;2023-05-27T02:06:56;101472.43;;;10.85;23.59
63339;BME280;47485;51.378;-1.342;2023-05-27T02:09:22;101468.93;;;11.65;22.75
63339;BME280;47485;51.378;-1.342;2023-05-27T02:11:49;101467.59;;;11.17;23.33
63339;BME280;47485;51.378;-1.342;2023-05-27T02:14:15;101468.98;;;10.90;23.79
63339;BME280;47485;51.378;-1.342;2023-05-27T02:16:43;101471.13;;;11.43;23.52
63339;BME280;47485;51.378;-1.342;2023-05-27T02:19:10;101473.95;;;8.48;24.78
63339;BME280;47485;51.378;-1.342;2023-05-27T02:21:36;101473.63;;;9.46;24.49
63339;BME280;47485;51.378;-1.342;2023-05-27T02:24:04;101466.81;;;10.98;23.87
63339;BME280;47485;51.378;-1.342;2023-05-27T02:26:31;101466.87;;;9.06;24.72
63339;BME280;47485;51.378;-1.342;2023-05-27T02:28:57;101464.50;;;11.12;23.69
63339;BME280;47485;51.378;-1.342;2023-05-27T02:31:24;101464.96;;;10.80;23.97
63339;BME280;47485;51.378;-1.342;2023-05-27T02:33:50;101460.20;;;12.34;22.93
63339;BME280;47485;51.378;-1.342;2023-05-27T02:36:17;101461.49;;;12.48;23.46
63339;BME280;47485;51.378;-1.342;2023-05-27T02:38:44;101459.18;;;10.56;23.90
63339;BME280;47485;51.378;-1.342;2023-05-27T02:41:10;101453.98;;;11.60;23.42
63339;BME280;47485;51.378;-1.342;2023-05-27T02:43:37;101454.28;;;11.27;23.96
63339;BME280;47485;51.378;-1.342;2023-05-27T02:46:04;101451.37;;;11.79;23.50
63339;BME280;47485;51.378;-1.342;2023-05-27T02:48:30;101453.79;;;10.36;24.27
63339;BME280;47485;51.378;-1.342;2023-05-27T02:50:57;101454.60;;;9.51;24.81
63339;BME280;47485;51.378;-1.342;2023-05-27T02:53:24;101454.70;;;10.82;25.31
63339;BME280;47485;51.378;-1.342;2023-05-27T02:55:50;101452.11;;;9.74;24.76
63339;BME280;47485;51.378;-1.342;2023-05-27T02:58:17;101449.11;;;10.78;24.72
63339;BME280;47485;51.378;-1.342;2023-05-27T03:00:44;101448.67;;;11.13;24.62
63339;BME280;47485;51.378;-1.342;2023-05-27T03:03:10;101443.02;;;9.03;24.45
63339;BME280;47485;51.378;-1.342;2023-05-27T03:05:37;101442.02;;;9.71;24.94
63339;BME280;47485;51.378;-1.342;2023-05-27T03:08:04;101446.25;;;8.54;26.07
63339;BME280;47485;51.378;-1.342;2023-05-27T03:10:32;101445.91;;;8.82;25.76
63339;BME280;47485;51.378;-1.342;2023-05-27T03:12:58;101444.58;;;9.71;25.59
63339;BME280;47485;51.378;-1.342;2023-05-27T03:15:25;101443.72;;;7.51;26.07
63339;BME280;47485;51.378;-1.342;2023-05-27T03:17:51;101442.21;;;9.69;25.24
63339;BME280;47485;51.378;-1.342;2023-05-27T03:20:18;101442.67;;;9.41;25.08
63339;BME280;47485;51.378;-1.342;2023-05-27T03:22:45;101445.77;;;10.19;25.07
63339;BME280;47485;51.378;-1.342;2023-05-27T03:25:11;101447.56;;;8.85;25.76
63339;BME280;47485;51.378;-1.342;2023-05-27T03:27:38;101445.29;;;10.31;24.93
63339;BME280;47485;51.378;-1.342;2023-05-27T03:30:06;101447.05;;;10.59;24.60
63339;BME280;47485;51.378;-1.342;2023-05-27T03:32:33;101442.92;;;11.14;24.54
63339;BME280;47485;51.378;-1.342;2023-05-27T03:35:00;101439.71;;;11.48;24.82
63339;BME280;47485;51.378;-1.342;2023-05-27T03:37:26;101440.67;;;10.06;25.23
63339;BME280;47485;51.378;-1.342;2023-05-27T03:39:53;101441.50;;;8.54;25.86
63339;BME280;47485;51.378;-1.342;2023-05-27T03:42:20;101445.92;;;9.45;26.28
63339;BME280;47485;51.378;-1.342;2023-05-27T03:44:47;101442.43;;;9.95;25.05
63339;BME280;47485;51.378;-1.342;2023-05-27T03:47:14;101444.55;;;10.83;24.82
63339;BME280;47485;51.378;-1.342;2023-05-27T03:49:41;101446.88;;;8.22;26.26
63339;BME280;47485;51.378;-1.342;2023-05-27T03:52:08;101442.68;;;10.09;25.10
63339;BME280;47485;51.378;-1.342;2023-05-27T03:54:34;101443.06;;;11.13;25.05
63339;BME280;47485;51.378;-1.342;2023-05-27T03:57:01;101444.25;;;11.01;25.00
63339;BME280;47485;51.378;-1.342;2023-05-27T03:59:28;101442.24;;;9.72;24.74
63339;BME280;47485;51.378;-1.342;2023-05-27T04:01:55;101436.67;;;11.50;23.81
63339;BME280;47485;51.378;-1.342;2023-05-27T04:04:21;101442.25;;;10.85;24.71
63339;BME280;47485;51.378;-1.342;2023-05-27T04:06:48;101444.62;;;10.26;25.47
63339;BME280;47485;51.378;-1.342;2023-05-27T04:09:15;101442.68;;;10.30;25.19
63339;BME280;47485;51.378;-1.342;2023-05-27T04:11:43;101437.87;;;11.73;24.72
63339;BME280;47485;51.378;-1.342;2023-05-27T04:14:10;101438.87;;;8.98;25.41
63339;BME280;47485;51.378;-1.342;2023-05-27T04:16:37;101438.34;;;10.47;25.90
63339;BME280;47485;51.378;-1.342;2023-05-27T04:19:03;101439.95;;;10.44;25.78
63339;BME280;47485;51.378;-1.342;2023-05-27T04:21:30;101434.47;;;11.39;25.22
63339;BME280;47485;51.378;-1.342;2023-05-27T04:23:57;101431.52;;;10.62;25.58
63339;BME280;47485;51.378;-1.342;2023-05-27T04:26:24;101435.37;;;11.02;26.05
63339;BME280;47485;51.378;-1.342;2023-05-27T04:28:51;101433.92;;;11.45;25.16
63339;BME280;47485;51.378;-1.342;2023-05-27T04:31:18;101434.44;;;11.80;25.31
63339;BME280;47485;51.378;-1.342;2023-05-27T04:33:45;101429.65;;;10.80;25.50
63339;BME280;47485;51.378;-1.342;2023-05-27T04:36:12;101430.63;;;9.88;26.15
63339;BME280;47485;51.378;-1.342;2023-05-27T04:38:39;101428.83;;;11.73;25.19
63339;BME280;47485;51.378;-1.342;2023-05-27T04:41:05;101431.36;;;10.97;26.00
63339;BME280;47485;51.378;-1.342;2023-05-27T04:43:32;101429.08;;;9.97;26.74
63339;BME280;47485;51.378;-1.342;2023-05-27T04:45:59;101425.45;;;10.84;27.00
63339;BME280;47485;51.378;-1.342;2023-05-27T04:48:25;101427.13;;;10.06;26.92
63339;BME280;47485;51.378;-1.342;2023-05-27T04:50:52;101429.91;;;8.86;27.18
63339;BME280;47485;51.378;-1.342;2023-05-27T04:53:19;101430.75;;;8.81;27.92
63339;BME280;47485;51.378;-1.342;2023-05-27T04:55:46;101432.57;;;8.99;28.10
63339;BME280;47485;51.378;-1.342;2023-05-27T04:58:13;101435.50;;;7.72;29.05
63339;BME280;47485;51.378;-1.342;2023-05-27T05:00:40;101435.32;;;8.17;29.25
63339;BME280;47485;51.378;-1.342;2023-05-27T05:03:07;101435.46;;;8.56;28.20
63339;BME280;47485;51.378;-1.342;2023-05-27T05:05:34;101439.22;;;9.67;28.34
63339;BME280;47485;51.378;-1.342;2023-05-27T05:08:01;101442.19;;;10.42;28.62
63339;BME280;47485;51.378;-1.342;2023-05-27T05:10:29;101445.18;;;6.92;29.76
63339;BME280;47485;51.378;-1.342;2023-05-27T05:12:55;101445.77;;;9.33;28.00
63339;BME280;47485;51.378;-1.342;2023-05-27T05:15:22;101450.33;;;8.10;28.95
63339;BME280;47485;51.378;-1.342;2023-05-27T05:17:49;101453.29;;;8.62;28.85
63339;BME280;47485;51.378;-1.342;2023-05-27T05:20:16;101450.27;;;9.10;29.30
63339;BME280;47485;51.378;-1.342;2023-05-27T05:22:43;101452.33;;;10.16;28.28
63339;BME280;47485;51.378;-1.342;2023-05-27T05:25:10;101451.24;;;8.10;29.35
63339;BME280;47485;51.378;-1.342;2023-05-27T05:27:37;101452.30;;;9.32;29.33
63339;BME280;47485;51.378;-1.342;2023-05-27T05:30:05;101447.83;;;8.46;29.65
63339;BME280;47485;51.378;-1.342;2023-05-27T05:32:32;101448.93;;;8.82;29.02
63339;BME280;47485;51.378;-1.342;2023-05-27T05:34:59;101447.18;;;8.58;28.88
63339;BME280;47485;51.378;-1.342;2023-05-27T05:37:26;101444.65;;;10.66;27.43
63339;BME280;47485;51.378;-1.342;2023-05-27T05:39:54;101445.43;;;8.73;28.56
63339;BME280;47485;51.378;-1.342;2023-05-27T05:42:20;101443.93;;;9.54;28.39
63339;BME280;47485;51.378;-1.342;2023-05-27T05:44:47;101443.40;;;9.78;28.37
63339;BME280;47485;51.378;-1.342;2023-05-27T05:47:14;101443.27;;;9.20;28.55
63339;BME280;47485;51.378;-1.342;2023-05-27T05:49:41;101440.65;;;10.06;28.12
63339;BME280;47485;51.378;-1.342;2023-05-27T05:52:08;101438.75;;;9.88;27.75
63339;BME280;47485;51.378;-1.342;2023-05-27T05:54:35;101438.95;;;9.32;28.50
63339;BME280;47485;51.378;-1.342;2023-05-27T05:57:02;101436.73;;;9.26;28.66
63339;BME280;47485;51.378;-1.342;2023-05-27T05:59:28;101436.94;;;9.01;28.87
63339;BME280;47485;51.378;-1.342;2023-05-27T06:01:55;101434.58;;;10.23;28.08
63339;BME280;47485;51.378;-1.342;2023-05-27T06:04:22;101438.26;;;7.63;30.05
63339;BME280;47485;51.378;-1.342;2023-05-27T06:06:49;101440.79;;;8.40;29.06
63339;BME280;47485;51.378;-1.342;2023-05-27T06:09:16;101439.71;;;8.69;29.19
63339;BME280;47485;51.378;-1.342;2023-05-27T06:11:43;101436.19;;;10.04;28.89
63339;BME280;47485;51.378;-1.342;2023-05-27T06:14:09;101437.61;;;9.42;28.85
63339;BME280;47485;51.378;-1.342;2023-05-27T06:16:36;101436.84;;;9.26;28.21
63339;BME280;47485;51.378;-1.342;2023-05-27T06:19:03;101431.96;;;9.12;28.22
63339;BME280;47485;51.378;-1.342;2023-05-27T06:21:30;101435.00;;;10.28;29.62
63339;BME280;47485;51.378;-1.342;2023-05-27T06:23:57;101437.04;;;8.06;30.15
63339;BME280;47485;51.378;-1.342;2023-05-27T06:26:24;101430.72;;;10.35;28.23
63339;BME280;47485;51.378;-1.342;2023-05-27T06:28:50;101431.10;;;9.43;28.97
63339;BME280;47485;51.378;-1.342;2023-05-27T06:31:17;101430.08;;;9.09;29.26
63339;BME280;47485;51.378;-1.342;2023-05-27T06:33:44;101423.77;;;12.06;27.56
63339;BME280;47485;51.378;-1.342;2023-05-27T06:36:11;101423.65;;;10.76;28.27
63339;BME280;47485;51.378;-1.342;2023-05-27T06:38:37;101418.90;;;10.10;28.45
63339;BME280;47485;51.378;-1.342;2023-05-27T06:41:04;101411.53;;;10.29;27.82
63339;BME280;47485;51.378;-1.342;2023-05-27T06:43:31;101406.91;;;10.51;27.51
63339;BME280;47485;51.378;-1.342;2023-05-27T06:45:58;101404.26;;;9.57;27.88
63339;BME280;47485;51.378;-1.342;2023-05-27T06:48:24;101406.63;;;10.79;28.38
63339;BME280;47485;51.378;-1.342;2023-05-27T06:50:51;101399.45;;;12.65;27.75
63339;BME280;47485;51.378;-1.342;2023-05-27T06:53:18;101399.63;;;9.59;28.91
63339;BME280;47485;51.378;-1.342;2023-05-27T06:55:44;101394.95;;;10.41;27.88
63339;BME280;47485;51.378;-1.342;2023-05-27T06:58:11;101393.34;;;11.88;27.54
63339;BME280;47485;51.378;-1.342;2023-05-27T07:00:38;101395.87;;;11.02;27.85
63339;BME280;47485;51.378;-1.342;2023-05-27T07:03:04;101392.67;;;10.24;28.46
63339;BME280;47485;51.378;-1.342;2023-05-27T07:05:31;101388.46;;;9.07;28.47
63339;BME280;47485;51.378;-1.342;2023-05-27T07:07:57;101385.01;;;11.16;27.70
63339;BME280;47485;51.378;-1.342;2023-05-27T07:10:24;101382.54;;;11.07;27.25
63339;BME280;47485;51.378;-1.342;2023-05-27T07:12:51;101379.43;;;10.73;26.88
63339;BME280;47485;51.378;-1.342;2023-05-27T07:15:17;101376.17;;;11.85;26.14
63339;BME280;47485;51.378;-1.342;2023-05-27T07:17:44;101373.25;;;10.91;27.22
63339;BME280;47485;51.378;-1.342;2023-05-27T07:20:12;101374.12;;;10.08;28.02
63339;BME280;47485;51.378;-1.342;2023-05-27T07:22:39;101369.12;;;10.57;27.92
63339;BME280;47485;51.378;-1.342;2023-05-27T07:25:07;101370.63;;;11.43;26.77
63339;BME280;47485;51.378;-1.342;2023-05-27T07:27:33;101366.40;;;11.15;26.64
63339;BME280;47485;51.378;-1.342;2023-05-27T07:30:00;101369.00;;;11.33;27.11
63339;BME280;47485;51.378;-1.342;2023-05-27T07:32:27;101367.10;;;12.54;27.32
63339;BME280;47485;51.378;-1.342;2023-05-27T07:34:54;101362.31;;;12.30;26.01
63339;BME280;47485;51.378;-1.342;2023-05-27T07:37:20;101360.33;;;11.38;26.61
63339;BME280;47485;51.378;-1.342;2023-05-27T07:39:47;101357.93;;;12.94;26.24
63339;BME280;47485;51.378;-1.342;2023-05-27T07:42:14;101353.94;;;11.83;26.26
63339;BME280;47485;51.378;-1.342;2023-05-27T07:44:41;101354.07;;;12.65;26.09
63339;BME280;47485;51.378;-1.342;2023-05-27T07:47:09;101349.61;;;12.58;26.28
63339;BME280;47485;51.378;-1.342;2023-05-27T07:49:36;101350.12;;;14.32;25.91
63339;BME280;47485;51.378;-1.342;2023-05-27T07:52:03;101350.65;;;10.67;27.51
63339;BME280;47485;51.378;-1.342;2023-05-27T07:54:30;101343.83;;;12.44;25.44
63339;BME280;47485;51.378;-1.342;2023-05-27T07:56:57;101344.71;;;10.62;26.95
63339;BME280;47485;51.378;-1.342;2023-05-27T07:59:23;101339.59;;;13.53;25.20
63339;BME280;47485;51.378;-1.342;2023-05-27T08:01:50;101339.48;;;13.50;25.41
63339;BME280;47485;51.378;-1.342;2023-05-27T08:04:18;101339.23;;;9.23;28.22
63339;BME280;47485;51.378;-1.342;2023-05-27T08:06:45;101337.73;;;9.86;26.86
63339;BME280;47485;51.378;-1.342;2023-05-27T08:09:12;101337.43;;;13.39;25.21
63339;BME280;47485;51.378;-1.342;2023-05-27T08:11:38;101337.49;;;10.46;26.67
63339;BME280;47485;51.378;-1.342;2023-05-27T08:14:05;101332.10;;;11.35;25.53
63339;BME280;47485;51.378;-1.342;2023-05-27T08:16:32;101332.64;;;13.27;24.80
63339;BME280;47485;51.378;-1.342;2023-05-27T08:18:58;101334.11;;;9.10;27.25
63339;BME280;47485;51.378;-1.342;2023-05-27T08:21:25;101327.80;;;10.95;26.40
63339;BME280;47485;51.378;-1.342;2023-05-27T08:23:52;101327.30;;;13.12;24.23
63339;BME280;47485;51.378;-1.342;2023-05-27T08:26:18;101332.35;;;13.30;24.54
63339;BME280;47485;51.378;-1.342;2023-05-27T08:28:45;101328.48;;;11.57;25.42
63339;BME280;47485;51.378;-1.342;2023-05-27T08:31:12;101331.92;;;13.56;25.06
63339;BME280;47485;51.378;-1.342;2023-05-27T08:33:39;101330.61;;;13.29;24.84
63339;BME280;47485;51.378;-1.342;2023-05-27T08:36:06;101332.66;;;12.17;25.30
63339;BME280;47485;51.378;-1.342;2023-05-27T08:38:33;101334.06;;;13.89;24.11
63339;BME280;47485;51.378;-1.342;2023-05-27T08:41:00;101332.05;;;12.83;23.87
63339;BME280;47485;51.378;-1.342;2023-05-27T08:43:26;101329.12;;;11.98;24.31
63339;BME280;47485;51.378;-1.342;2023-05-27T08:45:53;101331.57;;;11.43;25.20
63339;BME280;47485;51.378;-1.342;2023-05-27T08:48:20;101321.87;;;14.32;23.48
63339;BME280;47485;51.378;-1.342;2023-05-27T08:50:46;101312.88;;;14.40;22.46
63339;BME280;47485;51.378;-1.342;2023-05-27T08:53:13;101314.55;;;12.36;25.14
63339;BME280;47485;51.378;-1.342;2023-05-27T08:55:44;101313.62;;;12.24;25.43
63339;BME280;47485;51.378;-1.342;2023-05-27T08:58:12;101304.32;;;14.15;23.75
63339;BME280;47485;51.378;-1.342;2023-05-27T09:00:39;101304.65;;;11.32;25.76
63339;BME280;47485;51.378;-1.342;2023-05-27T09:03:06;101294.96;;;12.98;23.95
63339;BME280;47485;51.378;-1.342;2023-05-27T09:05:32;101294.73;;;13.69;24.28
63339;BME280;47485;51.378;-1.342;2023-05-27T09:08:00;101287.51;;;13.25;23.66
63339;BME280;47485;51.378;-1.342;2023-05-27T09:10:35;101286.34;;;13.47;23.81
63339;BME280;47485;51.378;-1.342;2023-05-27T09:13:02;101285.98;;;12.51;23.84
63339;BME280;47485;51.378;-1.342;2023-05-27T09:15:30;101286.52;;;13.22;23.84
63339;BME280;47485;51.378;-1.342;2023-05-27T09:17:57;101287.92;;;13.53;23.36
63339;BME280;47485;51.378;-1.342;2023-05-27T09:20:25;101285.49;;;14.56;22.27
63339;BME280;47485;51.378;-1.342;2023-05-27T09:22:56;101285.31;;;11.06;23.78
63339;BME280;47485;51.378;-1.342;2023-05-27T09:25:24;101284.45;;;12.03;24.05
63339;BME280;47485;51.378;-1.342;2023-05-27T09:27:51;101280.28;;;12.49;23.83
63339;BME280;47485;51.378;-1.342;2023-05-27T09:30:19;101274.53;;;15.91;21.68
63339;BME280;47485;51.378;-1.342;2023-05-27T09:32:47;101270.54;;;15.16;21.82
63339;BME280;47485;51.378;-1.342;2023-05-27T09:35:16;101266.15;;;14.50;22.16
63339;BME280;47485;51.378;-1.342;2023-05-27T09:37:43;101265.46;;;12.45;23.99
63339;BME280;47485;51.378;-1.342;2023-05-27T09:40:12;101261.06;;;14.08;23.14
63339;BME280;47485;51.378;-1.342;2023-05-27T09:42:41;101262.32;;;11.89;25.33
63339;BME280;47485;51.378;-1.342;2023-05-27T09:45:08;101258.80;;;14.91;21.80
63339;BME280;47485;51.378;-1.342;2023-05-27T09:47:37;101252.30;;;15.10;22.28
63339;BME280;47485;51.378;-1.342;2023-05-27T09:50:07;101252.03;;;16.10;21.92
63339;BME280;47485;51.378;-1.342;2023-05-27T09:52:36;101248.99;;;15.52;21.47
63339;BME280;47485;51.378;-1.342;2023-05-27T09:55:03;101249.79;;;14.09;22.85
63339;BME280;47485;51.378;-1.342;2023-05-27T09:57:30;101250.58;;;14.65;22.53
63339;BME280;47485;51.378;-1.342;2023-05-27T09:59:59;101251.80;;;16.01;21.65
63339;BME280;47485;51.378;-1.342;2023-05-27T10:02:28;101252.69;;;15.04;21.78
63339;BME280;47485;51.378;-1.342;2023-05-27T10:04:56;101251.16;;;14.19;22.37
63339;BME280;47485;51.378;-1.342;2023-05-27T10:07:25;101246.33;;;13.25;22.60
63339;BME280;47485;51.378;-1.342;2023-05-27T10:09:52;101244.75;;;14.31;22.49
63339;BME280;47485;51.378;-1.342;2023-05-27T10:12:20;101241.87;;;12.70;24.14
63339;BME280;47485;51.378;-1.342;2023-05-27T10:14:47;101240.54;;;16.70;20.56
63339;BME280;47485;51.378;-1.342;2023-05-27T10:17:14;101232.97;;;15.41;20.59
63339;BME280;47485;51.378;-1.342;2023-05-27T10:19:53;101233.64;;;17.63;19.99
63339;BME280;47485;51.378;-1.342;2023-05-27T10:22:20;101232.32;;;16.60;19.90
63339;BME280;47485;51.378;-1.342;2023-05-27T10:24:47;101233.81;;;16.17;20.41
63339;BME280;47485;51.378;-1.342;2023-05-27T10:27:14;101228.60;;;18.07;18.17
63339;BME280;47485;51.378;-1.342;2023-05-27T10:29:42;101230.14;;;16.08;21.42
63339;BME280;47485;51.378;-1.342;2023-05-27T10:32:09;101226.82;;;13.70;22.17
63339;BME280;47485;51.378;-1.342;2023-05-27T10:34:37;101222.64;;;16.62;20.11
63339;BME280;47485;51.378;-1.342;2023-05-27T10:37:09;101217.40;;;15.94;21.89
63339;BME280;47485;51.378;-1.342;2023-05-27T10:39:35;101216.43;;;16.16;21.92
63339;BME280;47485;51.378;-1.342;2023-05-27T10:42:03;101212.15;;;15.17;20.62
63339;BME280;47485;51.378;-1.342;2023-05-27T10:44:32;101205.80;;;16.95;20.13
63339;BME280;47485;51.378;-1.342;2023-05-27T10:47:00;101200.67;;;16.85;20.36
63339;BME280;47485;51.378;-1.342;2023-05-27T10:49:27;101195.40;;;15.39;20.26
63339;BME280;47485;51.378;-1.342;2023-05-27T10:51:53;101195.28;;;16.14;21.12
63339;BME280;47485;51.378;-1.342;2023-05-27T10:54:24;101192.86;;;17.12;19.69
63339;BME280;47485;51.378;-1.342;2023-05-27T10:56:50;101195.17;;;15.91;19.31
63339;BME280;47485;51.378;-1.342;2023-05-27T10:59:20;101191.25;;;16.05;18.63
63339;BME280;47485;51.378;-1.342;2023-05-27T11:01:50;101186.99;;;17.11;18.76
63339;BME280;47485;51.378;-1.342;2023-05-27T11:04:17;101195.66;;;14.45;20.88
63339;BME280;47485;51.378;-1.342;2023-05-27T11:06:56;101190.58;;;16.52;19.32
63339;BME280;47485;51.378;-1.342;2023-05-27T11:09:23;101187.99;;;17.24;19.62
63339;BME280;47485;51.378;-1.342;2023-05-27T11:11:50;101183.53;;;17.27;20.77
63339;BME280;47485;51.378;-1.342;2023-05-27T11:14:16;101179.87;;;15.47;20.48
63339;BME280;47485;51.378;-1.342;2023-05-27T11:16:46;101177.78;;;16.40;19.22
63339;BME280;47485;51.378;-1.342;2023-05-27T11:19:13;101172.79;;;15.98;18.92
63339;BME280;47485;51.378;-1.342;2023-05-27T11:21:44;101170.28;;;15.98;18.84
63339;BME280;47485;51.378;-1.342;2023-05-27T11:24:14;101159.95;;;18.65;18.01
63339;BME280;47485;51.378;-1.342;2023-05-27T11:26:43;101157.26;;;17.38;19.60
63339;BME280;47485;51.378;-1.342;2023-05-27T11:29:10;101160.26;;;15.12;20.80
63339;BME280;47485;51.378;-1.342;2023-05-27T11:31:37;101156.59;;;17.09;19.42
63339;BME280;47485;51.378;-1.342;2023-05-27T11:34:04;101155.89;;;12.19;23.04
63339;BME280;47485;51.378;-1.342;2023-05-27T11:36:30;101150.19;;;15.45;20.87
63339;BME280;47485;51.378;-1.342;2023-05-27T11:38:58;101140.71;;;15.55;19.57
63339;BME280;47485;51.378;-1.342;2023-05-27T11:41:26;101137.55;;;17.22;18.59
63339;BME280;47485;51.378;-1.342;2023-05-27T11:43:55;101125.57;;;20.00;17.21
63339;BME280;47485;51.378;-1.342;2023-05-27T11:46:23;101129.38;;;15.18;19.48
63339;BME280;47485;51.378;-1.342;2023-05-27T11:48:50;101123.81;;;14.76;20.11
63339;BME280;47485;51.378;-1.342;2023-05-27T11:51:17;101122.64;;;15.50;20.31
63339;BME280;47485;51.378;-1.342;2023-05-27T11:53:45;101119.87;;;15.36;21.15
63339;BME280;47485;51.378;-1.342;2023-05-27T11:56:13;101109.38;;;17.00;18.53
63339;BME280;47485;51.378;-1.342;2023-05-27T11:58:39;101107.07;;;18.61;18.82
63339;BME280;47485;51.378;-1.342;2023-05-27T12:01:06;101100.68;;;17.53;17.92
63339;BME280;47485;51.378;-1.342;2023-05-27T12:03:33;101095.44;;;18.01;18.14
63339;BME280;47485;51.378;-1.342;2023-05-27T12:06:00;101094.94;;;18.49;18.19
63339;BME280;47485;51.378;-1.342;2023-05-27T12:08:27;101090.49;;;18.10;19.01
63339;BME280;47485;51.378;-1.342;2023-05-27T12:10:53;101092.78;;;18.26;17.80
63339;BME280;47485;51.378;-1.342;2023-05-27T12:13:21;101090.96;;;18.89;18.19
63339;BME280;47485;51.378;-1.342;2023-05-27T12:15:49;101088.28;;;19.30;18.86
63339;BME280;47485;51.378;-1.342;2023-05-27T12:18:16;101085.56;;;18.60;17.86
63339;BME280;47485;51.378;-1.342;2023-05-27T12:20:44;101088.58;;;17.57;17.67
63339;BME280;47485;51.378;-1.342;2023-05-27T12:23:11;101086.12;;;19.31;18.26
63339;BME280;47485;51.378;-1.342;2023-05-27T12:25:39;101086.21;;;20.10;17.64
63339;BME280;47485;51.378;-1.342;2023-05-27T12:28:07;101083.03;;;20.08;17.06
63339;BME280;47485;51.378;-1.342;2023-05-27T12:30:34;101080.57;;;18.38;19.27
63339;BME280;47485;51.378;-1.342;2023-05-27T12:33:01;101087.47;;;13.36;22.62
63339;BME280;47485;51.378;-1.342;2023-05-27T12:35:27;101086.51;;;13.74;21.26
63339;BME280;47485;51.378;-1.342;2023-05-27T12:37:54;101078.55;;;17.39;19.72
63339;BME280;47485;51.378;-1.342;2023-05-27T12:40:21;101078.32;;;13.70;22.51
63339;BME280;47485;51.378;-1.342;2023-05-27T12:42:48;101069.88;;;12.75;22.88